sensor_id;sensor_type;location;lat;lon;timestamp;P1;durP1;ratioP1;P2;durP2;ratioP2
82176;SDS011;71758;48.714;9.584;2023-12-07T00:00:11;25.35;;;13.25;;
82176;SDS011;71758;48.714;9.584;2023-12-07T00:02:36;25.17;;;12.55;;
82176;SDS011;71758;48.714;9.584;2023-12-07T00:05:02;22.73;;;12.02;;
82176;SDS011;71758;48.714;9.584;2023-12-07T00:07:28;22.08;;;10.55;;
82176;SDS011;71758;48.714;9.584;2023-12-07T00:09:54;19.60;;;10.77;;
82176;SDS011;71758;48.714;9.584;2023-12-07T00:12:19;18.87;;;10.53;;
82176;SDS011;71758;48.714;9.584;2023-12-07T00:14:44;20.25;;;10.60;;
82176;SDS011;71758;48.714;9.584;2023-12-07T00:17:10;19.67;;;10.60;;
82176;SDS011;71758;48.714;9.584;2023-12-07T00:19:35;21.20;;;11.02;;
82176;SDS011;71758;48.714;9.584;2023-12-07T00:22:00;25.33;;;11.32;;
82176;SDS011;71758;48.714;9.584;2023-12-07T00:24:26;19.00;;;10.23;;
82176;SDS011;71758;48.714;9.584;2023-12-07T00:26:51;17.23;;;9.50;;
82176;SDS011;71758;48.714;9.584;2023-12-07T00:29:17;21.42;;;11.85;;
82176;SDS011;71758;48.714;9.584;2023-12-07T00:31:42;21.23;;;11.50;;
82176;SDS011;71758;48.714;9.584;2023-12-07T00:34:08;19.33;;;10.68;;
82176;SDS011;71758;48.714;9.584;2023-12-07T00:36:34;24.50;;;11.57;;
82176;SDS011;71758;48.714;9.584;2023-12-07T00:39:00;20.77;;;11.43;;
82176;SDS011;71758;48.714;9.584;2023-12-07T00:41:25;18.88;;;9.82;;
82176;SDS011;71758;48.714;9.584;2023-12-07T00:43:51;20.10;;;10.55;;
82176;SDS011;71758;48.714;9.584;2023-12-07T00:46:16;17.92;;;9.75;;
82176;SDS011;71758;48.714;9.584;2023-12-07T00:48:42;23.70;;;11.98;;
82176;SDS011;71758;48.714;9.584;2023-12-07T00:51:07;21.02;;;11.30;;
82176;SDS011;71758;48.714;9.584;2023-12-07T00:53:32;20.00;;;11.00;;
82176;SDS011;71758;48.714;9.584;2023-12-07T00:55:58;20.10;;;11.05;;
82176;SDS011;71758;48.714;9.584;2023-12-07T00:58:23;23.70;;;10.90;;
82176;SDS011;71758;48.714;9.584;2023-12-07T01:00:48;22.40;;;11.15;;
82176;SDS011;71758;48.714;9.584;2023-12-07T01:03:14;18.77;;;10.25;;
82176;SDS011;71758;48.714;9.584;2023-12-07T01:05:39;20.05;;;10.15;;
82176;SDS011;71758;48.714;9.584;2023-12-07T01:08:04;21.83;;;10.30;;
82176;SDS011;71758;48.714;9.584;2023-12-07T01:10:30;20.58;;;11.10;;
82176;SDS011;71758;48.714;9.584;2023-12-07T01:12:57;19.17;;;10.45;;
82176;SDS011;71758;48.714;9.584;2023-12-07T01:15:22;20.08;;;10.40;;
82176;SDS011;71758;48.714;9.584;2023-12-07T01:17:47;19.33;;;10.10;;
82176;SDS011;71758;48.714;9.584;2023-12-07T01:20:13;21.30;;;10.00;;
82176;SDS011;71758;48.714;9.584;2023-12-07T01:22:39;21.10;;;9.73;;
82176;SDS011;71758;48.714;9.584;2023-12-07T01:25:05;24.30;;;11.55;;
82176;SDS011;71758;48.714;9.584;2023-12-07T01:27:31;20.70;;;10.98;;
82176;SDS011;71758;48.714;9.584;2023-12-07T01:29:56;21.93;;;11.03;;
82176;SDS011;71758;48.714;9.584;2023-12-07T01:32:22;22.13;;;11.75;;
82176;SDS011;71758;48.714;9.584;2023-12-07T01:34:47;23.07;;;12.00;;
82176;SDS011;71758;48.714;9.584;2023-12-07T01:37:12;20.88;;;11.80;;
82176;SDS011;71758;48.714;9.584;2023-12-07T01:39:38;23.63;;;12.55;;
82176;SDS011;71758;48.714;9.584;2023-12-07T01:42:03;26.95;;;12.77;;
82176;SDS011;71758;48.714;9.584;2023-12-07T01:44:29;22.25;;;11.85;;
82176;SDS011;71758;48.714;9.584;2023-12-07T01:46:54;23.85;;;12.40;;
82176;SDS011;71758;48.714;9.584;2023-12-07T01:49:20;23.80;;;11.95;;
82176;SDS011;71758;48.714;9.584;2023-12-07T01:51:45;21.40;;;12.02;;
82176;SDS011;71758;48.714;9.584;2023-12-07T01:54:11;19.40;;;10.75;;
82176;SDS011;71758;48.714;9.584;2023-12-07T01:56:36;20.75;;;11.43;;
82176;SDS011;71758;48.714;9.584;2023-12-07T01:59:02;20.80;;;10.80;;
82176;SDS011;71758;48.714;9.584;2023-12-07T02:01:28;22.02;;;11.55;;
82176;SDS011;71758;48.714;9.584;2023-12-07T02:03:53;22.45;;;10.80;;
82176;SDS011;71758;48.714;9.584;2023-12-07T02:06:19;22.20;;;11.40;;
82176;SDS011;71758;48.714;9.584;2023-12-07T02:08:45;22.95;;;11.43;;
82176;SDS011;71758;48.714;9.584;2023-12-07T02:11:10;23.83;;;10.95;;
82176;SDS011;71758;48.714;9.584;2023-12-07T02:13:40;21.00;;;10.98;;
82176;SDS011;71758;48.714;9.584;2023-12-07T02:16:07;19.35;;;10.77;;
82176;SDS011;71758;48.714;9.584;2023-12-07T02:19:13;22.75;;;11.82;;
82176;SDS011;71758;48.714;9.584;2023-12-07T02:24:04;22.25;;;10.73;;
82176;SDS011;71758;48.714;9.584;2023-12-07T02:26:39;27.67;;;12.35;;
82176;SDS011;71758;48.714;9.584;2023-12-07T02:29:05;26.10;;;12.38;;
82176;SDS011;71758;48.714;9.584;2023-12-07T02:31:30;21.45;;;10.82;;
82176;SDS011;71758;48.714;9.584;2023-12-07T02:33:56;25.55;;;11.93;;
82176;SDS011;71758;48.714;9.584;2023-12-07T02:36:22;23.27;;;11.82;;
82176;SDS011;71758;48.714;9.584;2023-12-07T02:38:48;23.33;;;11.77;;
82176;SDS011;71758;48.714;9.584;2023-12-07T02:41:14;20.88;;;11.38;;
82176;SDS011;71758;48.714;9.584;2023-12-07T02:43:41;22.02;;;11.30;;
82176;SDS011;71758;48.714;9.584;2023-12-07T02:46:06;20.55;;;11.57;;
82176;SDS011;71758;48.714;9.584;2023-12-07T02:48:32;23.15;;;10.95;;
82176;SDS011;71758;48.714;9.584;2023-12-07T02:50:57;23.15;;;10.40;;
82176;SDS011;71758;48.714;9.584;2023-12-07T02:53:22;20.42;;;10.82;;
82176;SDS011;71758;48.714;9.584;2023-12-07T02:55:48;19.48;;;10.60;;
82176;SDS011;71758;48.714;9.584;2023-12-07T02:58:13;21.27;;;11.23;;
82176;SDS011;71758;48.714;9.584;2023-12-07T03:00:38;20.58;;;11.35;;
82176;SDS011;71758;48.714;9.584;2023-12-07T03:03:04;21.27;;;11.27;;
82176;SDS011;71758;48.714;9.584;2023-12-07T03:05:29;20.30;;;10.68;;
82176;SDS011;71758;48.714;9.584;2023-12-07T03:07:55;22.92;;;11.10;;
82176;SDS011;71758;48.714;9.584;2023-12-07T03:10:20;19.77;;;10.77;;
82176;SDS011;71758;48.714;9.584;2023-12-07T03:12:45;20.73;;;10.63;;
82176;SDS011;71758;48.714;9.584;2023-12-07T03:15:11;22.53;;;11.67;;
82176;SDS011;71758;48.714;9.584;2023-12-07T03:17:38;23.58;;;12.45;;
82176;SDS011;71758;48.714;9.584;2023-12-07T03:20:04;26.60;;;12.93;;
82176;SDS011;71758;48.714;9.584;2023-12-07T03:22:30;22.63;;;12.38;;
82176;SDS011;71758;48.714;9.584;2023-12-07T03:24:56;20.73;;;12.63;;
82176;SDS011;71758;48.714;9.584;2023-12-07T03:27:21;23.80;;;12.32;;
82176;SDS011;71758;48.714;9.584;2023-12-07T03:29:46;22.85;;;12.13;;
82176;SDS011;71758;48.714;9.584;2023-12-07T03:32:12;23.70;;;11.23;;
82176;SDS011;71758;48.714;9.584;2023-12-07T03:34:37;23.63;;;12.10;;
82176;SDS011;71758;48.714;9.584;2023-12-07T03:37:03;19.67;;;11.00;;
82176;SDS011;71758;48.714;9.584;2023-12-07T03:39:28;19.15;;;11.05;;
82176;SDS011;71758;48.714;9.584;2023-12-07T03:41:54;20.20;;;10.65;;
82176;SDS011;71758;48.714;9.584;2023-12-07T03:44:20;20.83;;;11.57;;
82176;SDS011;71758;48.714;9.584;2023-12-07T03:46:46;21.33;;;11.32;;
82176;SDS011;71758;48.714;9.584;2023-12-07T03:49:11;21.70;;;11.05;;
82176;SDS011;71758;48.714;9.584;2023-12-07T03:51:37;16.98;;;9.90;;
82176;SDS011;71758;48.714;9.584;2023-12-07T03:54:03;21.63;;;11.75;;
82176;SDS011;71758;48.714;9.584;2023-12-07T03:56:29;21.50;;;11.20;;
82176;SDS011;71758;48.714;9.584;2023-12-07T03:58:55;23.10;;;11.75;;
82176;SDS011;71758;48.714;9.584;2023-12-07T04:01:24;21.63;;;11.38;;
82176;SDS011;71758;48.714;9.584;2023-12-07T04:03:51;22.98;;;11.40;;
82176;SDS011;71758;48.714;9.584;2023-12-07T04:06:16;19.08;;;11.57;;
82176;SDS011;71758;48.714;9.584;2023-12-07T04:08:42;19.58;;;11.38;;
82176;SDS011;71758;48.714;9.584;2023-12-07T04:11:07;23.80;;;11.35;;
82176;SDS011;71758;48.714;9.584;2023-12-07T04:13:33;22.27;;;11.35;;
82176;SDS011;71758;48.714;9.584;2023-12-07T04:15:58;20.75;;;10.75;;
82176;SDS011;71758;48.714;9.584;2023-12-07T04:18:23;20.80;;;11.13;;
82176;SDS011;71758;48.714;9.584;2023-12-07T04:20:49;19.42;;;10.73;;
82176;SDS011;71758;48.714;9.584;2023-12-07T04:23:14;22.55;;;11.73;;
82176;SDS011;71758;48.714;9.584;2023-12-07T04:25:40;19.15;;;11.02;;
82176;SDS011;71758;48.714;9.584;2023-12-07T04:28:05;20.67;;;10.95;;
82176;SDS011;71758;48.714;9.584;2023-12-07T04:30:31;18.02;;;10.45;;
82176;SDS011;71758;48.714;9.584;2023-12-07T04:32:56;20.67;;;10.20;;
82176;SDS011;71758;48.714;9.584;2023-12-07T04:35:21;21.90;;;10.45;;
82176;SDS011;71758;48.714;9.584;2023-12-07T04:37:47;20.02;;;11.00;;
82176;SDS011;71758;48.714;9.584;2023-12-07T04:40:12;18.63;;;10.23;;
82176;SDS011;71758;48.714;9.584;2023-12-07T04:42:37;20.35;;;10.52;;
82176;SDS011;71758;48.714;9.584;2023-12-07T04:45:03;20.75;;;10.73;;
82176;SDS011;71758;48.714;9.584;2023-12-07T04:47:28;21.30;;;11.38;;
82176;SDS011;71758;48.714;9.584;2023-12-07T04:49:54;19.52;;;10.75;;
82176;SDS011;71758;48.714;9.584;2023-12-07T04:52:20;18.25;;;10.45;;
82176;SDS011;71758;48.714;9.584;2023-12-07T04:54:45;19.08;;;10.75;;
82176;SDS011;71758;48.714;9.584;2023-12-07T04:57:10;17.63;;;10.45;;
82176;SDS011;71758;48.714;9.584;2023-12-07T04:59:36;19.42;;;10.63;;
82176;SDS011;71758;48.714;9.584;2023-12-07T05:02:01;23.63;;;12.13;;
82176;SDS011;71758;48.714;9.584;2023-12-07T05:04:27;19.75;;;11.05;;
82176;SDS011;71758;48.714;9.584;2023-12-07T05:06:52;19.95;;;11.35;;
82176;SDS011;71758;48.714;9.584;2023-12-07T05:09:17;23.42;;;11.85;;
82176;SDS011;71758;48.714;9.584;2023-12-07T05:11:43;20.55;;;11.07;;
82176;SDS011;71758;48.714;9.584;2023-12-07T05:14:10;18.50;;;10.48;;
82176;SDS011;71758;48.714;9.584;2023-12-07T05:16:35;20.52;;;11.25;;
82176;SDS011;71758;48.714;9.584;2023-12-07T05:19:01;18.67;;;11.02;;
82176;SDS011;71758;48.714;9.584;2023-12-07T05:21:27;18.92;;;10.75;;
82176;SDS011;71758;48.714;9.584;2023-12-07T05:23:52;18.45;;;10.85;;
82176;SDS011;71758;48.714;9.584;2023-12-07T05:26:18;19.30;;;11.02;;
82176;SDS011;71758;48.714;9.584;2023-12-07T05:28:43;17.50;;;10.13;;
82176;SDS011;71758;48.714;9.584;2023-12-07T05:31:15;18.08;;;9.75;;
82176;SDS011;71758;48.714;9.584;2023-12-07T05:33:41;22.52;;;10.85;;
82176;SDS011;71758;48.714;9.584;2023-12-07T05:36:06;19.45;;;10.77;;
82176;SDS011;71758;48.714;9.584;2023-12-07T05:38:32;19.20;;;10.60;;
82176;SDS011;71758;48.714;9.584;2023-12-07T05:40:57;21.58;;;10.70;;
82176;SDS011;71758;48.714;9.584;2023-12-07T05:43:23;20.10;;;10.60;;
82176;SDS011;71758;48.714;9.584;2023-12-07T05:45:48;21.23;;;11.05;;
82176;SDS011;71758;48.714;9.584;2023-12-07T05:48:13;20.13;;;10.95;;
82176;SDS011;71758;48.714;9.584;2023-12-07T05:50:39;18.20;;;10.18;;
82176;SDS011;71758;48.714;9.584;2023-12-07T05:53:05;21.52;;;11.25;;
82176;SDS011;71758;48.714;9.584;2023-12-07T05:55:31;21.27;;;11.25;;
82176;SDS011;71758;48.714;9.584;2023-12-07T05:57:56;22.05;;;11.23;;
82176;SDS011;71758;48.714;9.584;2023-12-07T06:00:22;26.70;;;12.15;;
82176;SDS011;71758;48.714;9.584;2023-12-07T06:02:47;23.98;;;11.95;;
82176;SDS011;71758;48.714;9.584;2023-12-07T06:05:13;20.43;;;11.10;;
82176;SDS011;71758;48.714;9.584;2023-12-07T06:07:38;20.10;;;10.93;;
82176;SDS011;71758;48.714;9.584;2023-12-07T06:10:04;23.90;;;11.23;;
82176;SDS011;71758;48.714;9.584;2023-12-07T06:12:30;19.08;;;10.80;;
82176;SDS011;71758;48.714;9.584;2023-12-07T06:14:55;22.60;;;11.52;;
82176;SDS011;71758;48.714;9.584;2023-12-07T06:17:21;20.95;;;10.75;;
82176;SDS011;71758;48.714;9.584;2023-12-07T06:19:46;24.45;;;11.95;;
82176;SDS011;71758;48.714;9.584;2023-12-07T06:22:12;22.30;;;11.48;;
82176;SDS011;71758;48.714;9.584;2023-12-07T06:24:38;24.42;;;12.13;;
82176;SDS011;71758;48.714;9.584;2023-12-07T06:27:04;26.55;;;13.20;;
82176;SDS011;71758;48.714;9.584;2023-12-07T06:29:29;27.50;;;13.50;;
82176;SDS011;71758;48.714;9.584;2023-12-07T06:31:55;29.08;;;13.80;;
82176;SDS011;71758;48.714;9.584;2023-12-07T06:34:20;29.67;;;13.02;;
82176;SDS011;71758;48.714;9.584;2023-12-07T06:36:46;27.80;;;13.00;;
82176;SDS011;71758;48.714;9.584;2023-12-07T06:39:12;27.50;;;13.50;;
82176;SDS011;71758;48.714;9.584;2023-12-07T06:41:38;32.38;;;14.10;;
82176;SDS011;71758;48.714;9.584;2023-12-07T06:44:04;32.30;;;14.75;;
82176;SDS011;71758;48.714;9.584;2023-12-07T06:46:29;43.28;;;15.48;;
82176;SDS011;71758;48.714;9.584;2023-12-07T06:48:55;36.70;;;14.07;;
82176;SDS011;71758;48.714;9.584;2023-12-07T06:51:20;31.00;;;14.27;;
82176;SDS011;71758;48.714;9.584;2023-12-07T06:53:46;31.88;;;13.98;;
82176;SDS011;71758;48.714;9.584;2023-12-07T06:56:11;33.85;;;14.40;;
82176;SDS011;71758;48.714;9.584;2023-12-07T06:58:36;25.52;;;12.75;;
82176;SDS011;71758;48.714;9.584;2023-12-07T07:01:02;36.38;;;15.02;;
82176;SDS011;71758;48.714;9.584;2023-12-07T07:03:27;41.75;;;15.15;;
82176;SDS011;71758;48.714;9.584;2023-12-07T07:05:54;55.40;;;15.38;;
82176;SDS011;71758;48.714;9.584;2023-12-07T07:08:20;25.85;;;13.65;;
82176;SDS011;71758;48.714;9.584;2023-12-07T07:10:45;66.50;;;15.80;;
82176;SDS011;71758;48.714;9.584;2023-12-07T07:13:12;42.15;;;16.00;;
82176;SDS011;71758;48.714;9.584;2023-12-07T07:15:41;31.50;;;14.68;;
82176;SDS011;71758;48.714;9.584;2023-12-07T07:18:07;39.65;;;15.50;;
82176;SDS011;71758;48.714;9.584;2023-12-07T07:20:33;54.13;;;13.80;;
82176;SDS011;71758;48.714;9.584;2023-12-07T07:22:58;61.70;;;15.50;;
82176;SDS011;71758;48.714;9.584;2023-12-07T07:25:24;51.40;;;13.77;;
82176;SDS011;71758;48.714;9.584;2023-12-07T07:27:49;90.00;;;14.65;;
82176;SDS011;71758;48.714;9.584;2023-12-07T07:30:15;44.58;;;13.68;;
82176;SDS011;71758;48.714;9.584;2023-12-07T07:32:40;52.33;;;14.18;;
82176;SDS011;71758;48.714;9.584;2023-12-07T07:35:06;38.20;;;13.75;;
82176;SDS011;71758;48.714;9.584;2023-12-07T07:37:32;28.88;;;14.52;;
82176;SDS011;71758;48.714;9.584;2023-12-07T07:39:58;45.28;;;15.32;;
82176;SDS011;71758;48.714;9.584;2023-12-07T07:42:24;27.42;;;14.02;;
82176;SDS011;71758;48.714;9.584;2023-12-07T07:44:50;50.13;;;14.48;;
82176;SDS011;71758;48.714;9.584;2023-12-07T07:47:16;37.38;;;14.35;;
82176;SDS011;71758;48.714;9.584;2023-12-07T07:49:42;50.70;;;15.38;;
82176;SDS011;71758;48.714;9.584;2023-12-07T07:52:07;42.58;;;13.25;;
82176;SDS011;71758;48.714;9.584;2023-12-07T07:54:33;50.22;;;14.02;;
82176;SDS011;71758;48.714;9.584;2023-12-07T07:56:58;102.70;;;14.88;;
82176;SDS011;71758;48.714;9.584;2023-12-07T07:59:24;142.98;;;17.83;;
82176;SDS011;71758;48.714;9.584;2023-12-07T08:01:49;81.90;;;16.65;;
82176;SDS011;71758;48.714;9.584;2023-12-07T08:04:15;92.95;;;17.02;;
82176;SDS011;71758;48.714;9.584;2023-12-07T08:06:41;92.10;;;19.02;;
82176;SDS011;71758;48.714;9.584;2023-12-07T08:09:07;86.97;;;18.95;;
82176;SDS011;71758;48.714;9.584;2023-12-07T08:11:34;160.38;;;19.88;;
82176;SDS011;71758;48.714;9.584;2023-12-07T08:13:59;127.30;;;19.33;;
82176;SDS011;71758;48.714;9.584;2023-12-07T08:16:24;58.60;;;16.95;;
82176;SDS011;71758;48.714;9.584;2023-12-07T08:18:50;36.83;;;15.77;;
82176;SDS011;71758;48.714;9.584;2023-12-07T08:21:21;38.42;;;16.02;;
82176;SDS011;71758;48.714;9.584;2023-12-07T08:23:47;40.50;;;17.08;;
82176;SDS011;71758;48.714;9.584;2023-12-07T08:26:12;38.58;;;17.50;;
82176;SDS011;71758;48.714;9.584;2023-12-07T08:28:39;43.90;;;17.60;;
82176;SDS011;71758;48.714;9.584;2023-12-07T08:31:05;43.85;;;18.23;;
82176;SDS011;71758;48.714;9.584;2023-12-07T08:33:31;36.90;;;16.63;;
82176;SDS011;71758;48.714;9.584;2023-12-07T08:35:59;62.65;;;19.25;;
82176;SDS011;71758;48.714;9.584;2023-12-07T08:38:24;55.38;;;17.88;;
82176;SDS011;71758;48.714;9.584;2023-12-07T08:40:50;163.48;;;19.60;;
82176;SDS011;71758;48.714;9.584;2023-12-07T08:43:15;130.55;;;18.27;;
82176;SDS011;71758;48.714;9.584;2023-12-07T08:45:40;50.72;;;16.58;;
82176;SDS011;71758;48.714;9.584;2023-12-07T08:48:06;80.32;;;16.27;;
82176;SDS011;71758;48.714;9.584;2023-12-07T08:50:31;88.90;;;33.55;;
82176;SDS011;71758;48.714;9.584;2023-12-07T08:52:57;84.43;;;32.72;;
82176;SDS011;71758;48.714;9.584;2023-12-07T08:55:22;61.10;;;22.33;;
82176;SDS011;71758;48.714;9.584;2023-12-07T08:57:47;89.25;;;25.23;;
82176;SDS011;71758;48.714;9.584;2023-12-07T09:00:13;63.15;;;23.38;;
82176;SDS011;71758;48.714;9.584;2023-12-07T09:02:38;65.75;;;19.92;;
82176;SDS011;71758;48.714;9.584;2023-12-07T09:05:04;170.40;;;19.23;;
82176;SDS011;71758;48.714;9.584;2023-12-07T09:07:29;119.65;;;16.42;;
82176;SDS011;71758;48.714;9.584;2023-12-07T09:09:55;38.42;;;14.60;;
82176;SDS011;71758;48.714;9.584;2023-12-07T09:12:20;87.72;;;16.40;;
82176;SDS011;71758;48.714;9.584;2023-12-07T09:14:45;79.03;;;16.90;;
82176;SDS011;71758;48.714;9.584;2023-12-07T09:17:11;80.13;;;17.98;;
82176;SDS011;71758;48.714;9.584;2023-12-07T09:19:40;77.40;;;17.55;;
82176;SDS011;71758;48.714;9.584;2023-12-07T09:22:05;50.70;;;18.52;;
82176;SDS011;71758;48.714;9.584;2023-12-07T09:24:31;49.00;;;18.20;;
82176;SDS011;71758;48.714;9.584;2023-12-07T09:26:56;41.92;;;18.45;;
82176;SDS011;71758;48.714;9.584;2023-12-07T09:29:22;62.85;;;18.50;;
82176;SDS011;71758;48.714;9.584;2023-12-07T09:31:47;81.20;;;19.27;;
82176;SDS011;71758;48.714;9.584;2023-12-07T09:34:13;112.25;;;18.60;;
82176;SDS011;71758;48.714;9.584;2023-12-07T09:36:42;78.10;;;17.38;;
82176;SDS011;71758;48.714;9.584;2023-12-07T09:39:08;36.78;;;17.30;;
82176;SDS011;71758;48.714;9.584;2023-12-07T09:41:35;31.02;;;15.93;;
82176;SDS011;71758;48.714;9.584;2023-12-07T09:44:00;27.40;;;16.23;;
82176;SDS011;71758;48.714;9.584;2023-12-07T09:46:26;32.00;;;17.25;;
82176;SDS011;71758;48.714;9.584;2023-12-07T09:48:53;33.95;;;18.05;;
82176;SDS011;71758;48.714;9.584;2023-12-07T09:51:18;35.78;;;19.77;;
82176;SDS011;71758;48.714;9.584;2023-12-07T09:53:44;37.42;;;19.98;;
82176;SDS011;71758;48.714;9.584;2023-12-07T09:56:10;40.33;;;20.83;;
82176;SDS011;71758;48.714;9.584;2023-12-07T09:58:36;41.50;;;20.30;;
82176;SDS011;71758;48.714;9.584;2023-12-07T10:01:01;39.53;;;20.02;;
82176;SDS011;71758;48.714;9.584;2023-12-07T10:03:26;32.92;;;18.10;;
82176;SDS011;71758;48.714;9.584;2023-12-07T10:05:56;33.55;;;17.88;;
82176;SDS011;71758;48.714;9.584;2023-12-07T10:08:26;30.40;;;16.85;;
82176;SDS011;71758;48.714;9.584;2023-12-07T10:11:03;34.28;;;18.48;;
82176;SDS011;71758;48.714;9.584;2023-12-07T10:13:30;35.15;;;17.98;;
82176;SDS011;71758;48.714;9.584;2023-12-07T10:16:05;28.63;;;16.30;;
82176;SDS011;71758;48.714;9.584;2023-12-07T10:18:35;23.65;;;13.77;;
82176;SDS011;71758;48.714;9.584;2023-12-07T10:21:01;28.48;;;13.52;;
82176;SDS011;71758;48.714;9.584;2023-12-07T10:23:27;23.52;;;10.75;;
82176;SDS011;71758;48.714;9.584;2023-12-07T10:25:53;15.13;;;8.30;;
82176;SDS011;71758;48.714;9.584;2023-12-07T10:28:18;19.20;;;9.15;;
82176;SDS011;71758;48.714;9.584;2023-12-07T10:30:45;15.68;;;8.23;;
82176;SDS011;71758;48.714;9.584;2023-12-07T10:33:10;13.80;;;7.72;;
82176;SDS011;71758;48.714;9.584;2023-12-07T10:35:38;14.05;;;7.82;;
82176;SDS011;71758;48.714;9.584;2023-12-07T10:38:04;15.82;;;7.20;;
82176;SDS011;71758;48.714;9.584;2023-12-07T10:40:30;17.58;;;7.38;;
82176;SDS011;71758;48.714;9.584;2023-12-07T10:42:56;14.65;;;7.47;;
82176;SDS011;71758;48.714;9.584;2023-12-07T10:45:24;13.40;;;7.78;;
82176;SDS011;71758;48.714;9.584;2023-12-07T10:47:50;13.80;;;7.35;;
82176;SDS011;71758;48.714;9.584;2023-12-07T10:50:16;14.30;;;7.22;;
82176;SDS011;71758;48.714;9.584;2023-12-07T10:52:48;13.10;;;6.63;;
82176;SDS011;71758;48.714;9.584;2023-12-07T10:55:19;12.93;;;6.30;;
82176;SDS011;71758;48.714;9.584;2023-12-07T10:57:46;14.30;;;5.55;;
82176;SDS011;71758;48.714;9.584;2023-12-07T11:00:12;10.70;;;5.25;;
82176;SDS011;71758;48.714;9.584;2023-12-07T11:02:37;12.23;;;5.40;;
82176;SDS011;71758;48.714;9.584;2023-12-07T11:05:04;10.35;;;5.43;;
82176;SDS011;71758;48.714;9.584;2023-12-07T11:08:34;11.13;;;5.13;;
82176;SDS011;71758;48.714;9.584;2023-12-07T11:13:08;8.07;;;3.50;;
82176;SDS011;71758;48.714;9.584;2023-12-07T11:15:38;8.10;;;3.88;;
82176;SDS011;71758;48.714;9.584;2023-12-07T11:18:04;7.68;;;3.90;;
82176;SDS011;71758;48.714;9.584;2023-12-07T11:20:40;5.95;;;3.08;;
82176;SDS011;71758;48.714;9.584;2023-12-07T11:23:10;6.28;;;2.83;;
82176;SDS011;71758;48.714;9.584;2023-12-07T11:25:36;9.98;;;2.80;;
82176;SDS011;71758;48.714;9.584;2023-12-07T11:28:03;5.13;;;2.28;;
82176;SDS011;71758;48.714;9.584;2023-12-07T11:30:32;4.78;;;2.20;;
82176;SDS011;71758;48.714;9.584;2023-12-07T11:33:03;5.90;;;2.45;;
82176;SDS011;71758;48.714;9.584;2023-12-07T11:35:29;5.07;;;2.15;;
82176;SDS011;71758;48.714;9.584;2023-12-07T11:38:07;6.10;;;2.50;;
82176;SDS011;71758;48.714;9.584;2023-12-07T11:40:43;5.60;;;2.58;;
82176;SDS011;71758;48.714;9.584;2023-12-07T11:43:57;6.32;;;2.90;;
82176;SDS011;71758;48.714;9.584;2023-12-07T11:46:03;8.48;;;2.70;;
82176;SDS011;71758;48.714;9.584;2023-12-07T11:48:29;6.00;;;2.42;;
82176;SDS011;71758;48.714;9.584;2023-12-07T11:53:21;5.32;;;2.30;;
82176;SDS011;71758;48.714;9.584;2023-12-07T11:55:51;5.00;;;2.22;;
82176;SDS011;71758;48.714;9.584;2023-12-07T11:58:16;4.20;;;2.10;;
82176;SDS011;71758;48.714;9.584;2023-12-07T12:00:43;5.28;;;2.08;;
82176;SDS011;71758;48.714;9.584;2023-12-07T12:03:09;5.95;;;2.30;;
82176;SDS011;71758;48.714;9.584;2023-12-07T12:05:36;4.28;;;1.92;;
82176;SDS011;71758;48.714;9.584;2023-12-07T12:08:03;6.28;;;1.75;;
82176;SDS011;71758;48.714;9.584;2023-12-07T12:10:29;4.90;;;2.00;;
82176;SDS011;71758;48.714;9.584;2023-12-07T12:12:55;5.00;;;1.90;;
82176;SDS011;71758;48.714;9.584;2023-12-07T12:15:20;5.57;;;1.63;;
82176;SDS011;71758;48.714;9.584;2023-12-07T12:17:46;4.30;;;1.60;;
82176;SDS011;71758;48.714;9.584;2023-12-07T12:20:11;3.55;;;1.40;;
82176;SDS011;71758;48.714;9.584;2023-12-07T12:22:42;5.20;;;1.50;;
82176;SDS011;71758;48.714;9.584;2023-12-07T12:25:08;3.78;;;1.60;;
82176;SDS011;71758;48.714;9.584;2023-12-07T12:27:33;4.53;;;1.67;;
82176;SDS011;71758;48.714;9.584;2023-12-07T12:29:58;4.40;;;1.65;;
82176;SDS011;71758;48.714;9.584;2023-12-07T12:32:24;4.22;;;1.50;;
82176;SDS011;71758;48.714;9.584;2023-12-07T12:34:53;5.82;;;1.95;;
82176;SDS011;71758;48.714;9.584;2023-12-07T12:37:18;4.03;;;1.75;;
82176;SDS011;71758;48.714;9.584;2023-12-07T12:39:44;4.72;;;1.90;;
82176;SDS011;71758;48.714;9.584;2023-12-07T12:42:09;5.70;;;1.98;;
82176;SDS011;71758;48.714;9.584;2023-12-07T12:44:36;3.50;;;1.50;;
82176;SDS011;71758;48.714;9.584;2023-12-07T12:47:06;5.45;;;1.70;;
82176;SDS011;71758;48.714;9.584;2023-12-07T12:49:40;3.17;;;1.17;;
82176;SDS011;71758;48.714;9.584;2023-12-07T12:52:14;6.80;;;1.80;;
82176;SDS011;71758;48.714;9.584;2023-12-07T12:54:44;4.32;;;1.50;;
82176;SDS011;71758;48.714;9.584;2023-12-07T12:57:09;5.45;;;1.60;;
82176;SDS011;71758;48.714;9.584;2023-12-07T12:59:35;5.55;;;1.95;;
82176;SDS011;71758;48.714;9.584;2023-12-07T13:02:00;3.67;;;1.35;;
82176;SDS011;71758;48.714;9.584;2023-12-07T13:04:29;5.10;;;1.67;;
82176;SDS011;71758;48.714;9.584;2023-12-07T13:06:55;3.80;;;1.25;;
82176;SDS011;71758;48.714;9.584;2023-12-07T13:09:21;5.25;;;1.25;;
82176;SDS011;71758;48.714;9.584;2023-12-07T13:11:46;3.45;;;1.35;;
82176;SDS011;71758;48.714;9.584;2023-12-07T13:14:12;4.38;;;1.40;;
82176;SDS011;71758;48.714;9.584;2023-12-07T13:16:38;4.30;;;1.40;;
82176;SDS011;71758;48.714;9.584;2023-12-07T13:19:03;3.88;;;1.38;;
82176;SDS011;71758;48.714;9.584;2023-12-07T13:21:28;4.35;;;1.40;;
82176;SDS011;71758;48.714;9.584;2023-12-07T13:23:54;3.80;;;1.45;;
82176;SDS011;71758;48.714;9.584;2023-12-07T13:26:19;4.80;;;1.40;;
82176;SDS011;71758;48.714;9.584;2023-12-07T13:28:45;3.85;;;1.40;;
82176;SDS011;71758;48.714;9.584;2023-12-07T13:31:11;4.32;;;1.48;;
82176;SDS011;71758;48.714;9.584;2023-12-07T13:33:36;4.13;;;1.52;;
82176;SDS011;71758;48.714;9.584;2023-12-07T13:36:03;3.97;;;1.40;;
82176;SDS011;71758;48.714;9.584;2023-12-07T13:38:29;3.67;;;1.60;;
82176;SDS011;71758;48.714;9.584;2023-12-07T13:40:56;3.92;;;1.20;;
82176;SDS011;71758;48.714;9.584;2023-12-07T13:43:21;4.30;;;1.60;;
82176;SDS011;71758;48.714;9.584;2023-12-07T13:45:49;3.13;;;1.30;;
82176;SDS011;71758;48.714;9.584;2023-12-07T13:48:14;7.28;;;2.00;;
82176;SDS011;71758;48.714;9.584;2023-12-07T13:50:40;4.53;;;1.30;;
82176;SDS011;71758;48.714;9.584;2023-12-07T13:53:06;3.88;;;1.40;;
82176;SDS011;71758;48.714;9.584;2023-12-07T13:55:41;4.85;;;1.50;;
82176;SDS011;71758;48.714;9.584;2023-12-07T13:58:06;6.00;;;1.70;;
82176;SDS011;71758;48.714;9.584;2023-12-07T14:00:33;4.95;;;1.70;;
82176;SDS011;71758;48.714;9.584;2023-12-07T14:02:59;4.40;;;1.75;;
82176;SDS011;71758;48.714;9.584;2023-12-07T14:05:24;4.28;;;1.63;;
82176;SDS011;71758;48.714;9.584;2023-12-07T14:07:50;5.00;;;2.00;;
82176;SDS011;71758;48.714;9.584;2023-12-07T14:10:15;5.13;;;1.95;;
82176;SDS011;71758;48.714;9.584;2023-12-07T14:12:41;5.00;;;1.67;;
82176;SDS011;71758;48.714;9.584;2023-12-07T14:15:06;4.95;;;1.80;;
82176;SDS011;71758;48.714;9.584;2023-12-07T14:17:33;5.35;;;1.95;;
82176;SDS011;71758;48.714;9.584;2023-12-07T14:20:05;8.65;;;2.70;;
82176;SDS011;71758;48.714;9.584;2023-12-07T14:22:32;9.05;;;2.25;;
82176;SDS011;71758;48.714;9.584;2023-12-07T14:24:58;6.60;;;2.03;;
82176;SDS011;71758;48.714;9.584;2023-12-07T14:27:23;13.60;;;3.15;;
82176;SDS011;71758;48.714;9.584;2023-12-07T14:29:49;4.72;;;2.10;;